San Luis County Regional Airport
KSBP : now visible

Airfield :











YOU CAN JOIN US ON...

 
LOGIN :

Register | Disclaimer

   EN    FR    IT 

 









Legend :    VFR   Marginal VFR   IFR   Intensive IFR   Very Intensive IFR
Visi :
Ceiling :
>= 8 km
>= 3000ft
5 to 8 km
1000 to 3000 ft
1500m to 5 km
500 to 1000 ft
800 to 1500m
200 to 500 ft
< 800m
< 200 ft
Symbols :   Thunderstorms  Fog  Heavy snow  Heavy precipitations  Wind > 20 kt






- Airport Elevation : 212 ft
- IATA code : SBP


KSBP - San Luis County Regional

CURRENT METAR :
  • 181046Z AUTO 29003KT 2SM BR OVC002 12/12 A2994 RMK AO2 T01170117

EXPIRED METARs :
  • 181017Z AUTO 00000KT 1 1/2SM BR OVC002 12/12 A2994 RMK AO2 VIS 3/4V5 T01170117
  • 181007Z AUTO 31004KT 3SM BR OVC002 11/11 A2994 RMK AO2 T01110111
  • 180956Z AUTO 30004KT 1 3/4SM BR OVC002 11/11 A2993 RMK AO2 VIS 3/4V5 SLP135 T01110111
  • 180929Z AUTO 30004KT 3SM BR OVC002 11/11 A2994 RMK AO2 T01110111
  • 180906Z AUTO 30004KT 1 3/4SM BR OVC002 11/11 A2994 RMK AO2 VIS 3/4V4 T01110111
  • 180816Z AUTO 30004KT 1 3/4SM BR OVC003 12/12 A2994 RMK AO2 T01170117
  • 180756Z AUTO 29004KT 10SM BKN003 12/12 A2993 RMK AO2 SLP134 T01170117 402830106

TAF KSBP
Valid from the 18 at 09:00 until the 19 at 06:00 UTC


180859Z 1809/1906 VRB03KT 3SM BR BKN002
FM181200 VRB03KT 1SM BR OVC002
FM181500 VRB03KT 3SM BR OVC005
FM181600 VRB03KT P6SM SCT008
FM181900 28005KT P6SM SKC
FM190400 VRB03KT P6SM SKC
KZLA FIR / North America



MET'MAP, your aeronautical weather chart ! - Copyright ORBIFLY December 2007 - Disclaimer

ORBIFLY MET'MAP TEAM :

Programming & Development : Alexandra Zaïnal
Original concept : Baudouin d'Aumeries
Technical & hardware support : Manuel Goepfert
Assistance : Marc-Olivier Méhu




SOURCES & CREDITS :

   NOAA       Earth
Advisory